Time;durP1;ratioP1;P1;durP2;ratioP2;P2;SDS_P1;SDS_P2;PMS_P1;PMS_P2;Temp;Humidity;BMP_temperature;BMP_pressure;BME280_temperature;BME280_humidity;BME280_pressure;Samples;Min_cycle;Max_cycle;Signal;HPM_P1;HPM_P2
2022/06/14 00:01:14;;;;;;;7.97;5.03;;;9.20;99.90;;;;;;4922328;29;20035;-59
2022/06/14 00:03:42;;;;;;;7.03;5.18;;;9.20;99.90;;;;;;4924099;29;20070;-59
2022/06/14 00:06:30;;;;;;;9.90;6.18;;;9.20;99.90;;;;;;4927700;29;20453;-58
2022/06/14 00:08:56;;;;;;;5.45;4.95;;;9.20;99.90;;;;;;4922760;29;20032;-59
2022/06/14 00:11:29;;;;;;;7.65;5.47;;;9.20;99.90;;;;;;4908819;29;20035;-58
2022/06/14 00:13:55;;;;;;;9.45;5.45;;;9.20;99.90;;;;;;4920229;29;20094;-59
2022/06/14 00:16:22;;;;;;;7.45;6.05;;;9.20;99.90;;;;;;4922463;29;20078;-59
2022/06/14 00:18:48;;;;;;;8.57;5.85;;;9.20;99.90;;;;;;4925029;29;20032;-59
2022/06/14 00:21:15;;;;;;;4.78;4.35;;;9.10;99.90;;;;;;4922958;29;20170;-58
2022/06/14 00:23:41;;;;;;;7.28;5.50;;;9.10;99.90;;;;;;4925176;29;20589;-58
2022/06/14 00:26:08;;;;;;;6.47;5.40;;;9.10;99.90;;;;;;4922000;29;20137;-58
2022/06/14 00:28:35;;;;;;;5.70;5.15;;;9.10;99.90;;;;;;4926878;29;20036;-58
2022/06/14 00:31:19;;;;;;;9.55;6.60;;;9.00;99.90;;;;;;4924909;29;20027;-58
2022/06/14 00:33:45;;;;;;;7.53;6.78;;;9.00;99.90;;;;;;4922621;29;20118;-59
2022/06/14 00:36:23;;;;;;;8.95;6.32;;;9.00;99.90;;;;;;4922948;29;20031;-59
2022/06/14 00:38:49;;;;;;;7.75;6.40;;;9.00;99.90;;;;;;4922200;29;20036;-58
2022/06/14 00:41:44;;;;;;;7.43;6.53;;;8.90;99.90;;;;;;4923445;29;20039;-58
2022/06/14 00:44:16;;;;;;;7.90;7.10;;;8.90;99.90;;;;;;4925340;29;20512;-58
2022/06/14 00:46:53;;;;;;;7.65;5.93;;;8.90;99.90;;;;;;4925657;29;20067;-58
2022/06/14 00:49:49;;;;;;;7.53;6.78;;;8.90;99.90;;;;;;4924561;29;20020;-60
2022/06/14 00:52:37;;;;;;;7.38;4.50;;;8.90;99.90;;;;;;4921140;29;20040;-58
2022/06/14 00:55:38;;;;;;;6.13;5.53;;;8.80;99.90;;;;;;4921508;29;20024;-59
2022/06/14 00:58:08;;;;;;;5.82;4.80;;;8.70;99.90;;;;;;4921692;29;20024;-59
2022/06/14 01:00:40;;;;;;;6.43;5.75;;;8.70;99.90;;;;;;4919633;29;20032;-58
2022/06/14 01:03:15;;;;;;;6.18;4.90;;;8.60;99.90;;;;;;4924312;29;20032;-58
2022/06/14 01:06:07;;;;;;;5.30;4.80;;;8.50;99.90;;;;;;4922076;29;20452;-58
2022/06/14 01:08:56;;;;;;;5.93;4.82;;;8.40;99.90;;;;;;4925203;29;20036;-58
2022/06/14 01:11:33;;;;;;;6.40;5.80;;;8.30;99.90;;;;;;4923062;29;20508;-58
2022/06/14 01:14:01;;;;;;;7.47;6.47;;;8.20;99.90;;;;;;4924382;29;20044;-58
2022/06/14 01:16:28;;;;;;;13.30;7.57;;;8.10;99.90;;;;;;4922033;29;20119;-58
2022/06/14 01:18:54;;;;;;;10.15;6.85;;;8.10;99.90;;;;;;4922254;29;20479;-58
2022/06/14 01:21:20;;;;;;;7.97;6.90;;;8.10;99.90;;;;;;4922062;29;20036;-58
2022/06/14 01:23:45;;;;;;;10.70;6.60;;;8.00;99.90;;;;;;4921134;29;20059;-58
2022/06/14 01:26:15;;;;;;;8.00;6.72;;;8.00;99.90;;;;;;4918112;29;20028;-58
2022/06/14 01:28:44;;;;;;;8.65;6.97;;;7.90;99.90;;;;;;4919856;29;20118;-58
2022/06/14 01:31:11;;;;;;;9.43;7.03;;;7.90;99.90;;;;;;4921877;29;20031;-59
2022/06/14 01:33:43;;;;;;;8.10;7.25;;;7.90;99.90;;;;;;4922567;29;20028;-58
2022/06/14 01:36:10;;;;;;;;;;;7.90;99.90;;;;;;4920663;29;20118;-57
2022/06/14 01:38:37;;;;;;;8.00;6.72;;;7.90;99.90;;;;;;4925302;29;19919;-58
2022/06/14 01:41:11;;;;;;;8.68;7.28;;;7.90;99.90;;;;;;4910085;29;20032;-58
2022/06/14 01:44:02;;;;;;;9.70;7.45;;;7.90;99.90;;;;;;4924233;29;20035;-58
2022/06/14 01:46:46;;;;;;;8.93;6.77;;;7.90;99.90;;;;;;4921225;29;20036;-59
2022/06/14 01:52:24;;;;;;;6.68;6.15;;;7.80;99.90;;;;;;4916743;29;20559;-58
2022/06/14 01:55:15;;;;;;;6.80;5.78;;;7.80;99.90;;;;;;4923951;29;20032;-58
2022/06/14 01:57:53;;;;;;;11.73;7.15;;;7.80;99.90;;;;;;4920946;29;20044;-58
2022/06/14 02:00:30;;;;;;;7.13;5.93;;;7.70;99.90;;;;;;4920402;29;20039;-58
2022/06/14 02:04:37;;;;;;;8.77;6.97;;;7.70;99.90;;;;;;4924056;29;20120;-58
2022/06/14 02:06:12;;;;;;;6.65;5.80;;;7.60;99.90;;;;;;4920670;29;20459;-59
2022/06/14 02:08:51;;;;;;;7.43;6.50;;;7.60;99.90;;;;;;4904771;29;20485;-59
2022/06/14 02:11:27;;;;;;;10.57;7.40;;;7.60;99.90;;;;;;4919537;29;20040;-58
2022/06/14 02:14:17;;;;;;;8.43;6.40;;;7.50;99.90;;;;;;4919750;29;20500;-58
2022/06/14 02:17:03;;;;;;;7.65;6.45;;;7.50;99.90;;;;;;4919976;29;20123;-58
2022/06/14 02:19:47;;;;;;;9.15;8.25;;;7.40;99.90;;;;;;4921970;29;20031;-58
2022/06/14 02:22:22;;;;;;;8.27;7.45;;;7.40;99.90;;;;;;4899961;29;20029;-58
2022/06/14 02:24:53;;;;;;;8.00;7.40;;;7.30;99.90;;;;;;4919348;29;20028;-58
2022/06/14 02:27:30;;;;;;;8.10;7.07;;;7.20;99.90;;;;;;4922844;29;20051;-59
2022/06/14 02:30:04;;;;;;;9.38;7.97;;;7.20;99.90;;;;;;4914886;29;20095;-58
2022/06/14 02:32:48;;;;;;;10.88;7.80;;;7.10;99.90;;;;;;4919384;29;20055;-59
2022/06/14 02:35:23;;;;;;;9.25;8.32;;;7.00;99.90;;;;;;4911643;29;20500;-58
2022/06/14 02:38:01;;;;;;;12.88;8.13;;;7.10;99.90;;;;;;4919676;29;20032;-58
2022/06/14 02:40:38;;;;;;;9.68;8.68;;;7.00;99.90;;;;;;4922090;29;20031;-58
2022/06/14 02:43:20;;;;;;;11.70;8.73;;;7.10;99.90;;;;;;4922536;29;20055;-58
2022/06/14 02:46:00;;;;;;;11.02;8.65;;;7.00;99.90;;;;;;4922700;29;20043;-59
2022/06/14 02:48:34;;;;;;;8.93;8.05;;;7.00;99.90;;;;;;4918378;29;20123;-58
2022/06/14 02:51:06;;;;;;;8.80;7.90;;;7.00;99.90;;;;;;4916624;29;20059;-58
2022/06/14 02:54:04;;;;;;;10.65;8.95;;;7.00;99.90;;;;;;4917663;29;20061;-58
2022/06/14 02:56:42;;;;;;;10.93;8.02;;;7.00;99.90;;;;;;4919837;29;20036;-58
2022/06/14 02:59:20;;;;;;;10.30;8.93;;;6.90;99.90;;;;;;4921300;29;20043;-58
2022/06/14 03:01:51;;;;;;;8.95;7.63;;;6.90;99.90;;;;;;4920198;29;20492;-58
2022/06/14 03:04:23;;;;;;;;;;;6.90;99.90;;;;;;4918844;29;20144;-59
2022/06/14 03:06:51;;;;;;;8.30;7.55;;;6.90;99.90;;;;;;4921941;29;19998;-58
2022/06/14 03:09:27;;;;;;;9.85;8.85;;;6.90;99.90;;;;;;4917633;29;20111;-58
2022/06/14 03:12:31;;;;;;;13.55;9.27;;;6.90;99.90;;;;;;4921555;29;20036;-58
2022/06/14 03:15:31;;;;;;;9.45;8.13;;;6.90;99.90;;;;;;4908460;29;20044;-57
2022/06/14 03:18:38;;;;;;;8.70;7.75;;;6.90;99.90;;;;;;4910191;29;20402;-58
2022/06/14 03:21:16;;;;;;;8.32;7.20;;;6.90;99.90;;;;;;4904969;29;20028;-58
2022/06/14 03:23:57;;;;;;;10.10;7.93;;;6.90;99.90;;;;;;4920642;29;20046;-58
2022/06/14 03:26:38;;;;;;;9.67;8.67;;;6.90;99.90;;;;;;4919670;29;20044;-59
2022/06/14 03:29:13;;;;;;;9.55;8.50;;;6.90;99.90;;;;;;4925413;29;20040;-58
2022/06/14 03:32:16;;;;;;;9.98;8.98;;;6.90;99.90;;;;;;4924137;29;20044;-58
2022/06/14 03:34:53;;;;;;;10.13;9.15;;;6.90;99.90;;;;;;4923514;28;20508;-59
2022/06/14 03:37:19;;;;;;;9.13;8.30;;;7.00;99.90;;;;;;4925079;29;20650;-58
2022/06/14 03:39:50;;;;;;;10.30;8.88;;;7.00;99.90;;;;;;4926094;29;20047;-58
2022/06/14 03:42:16;;;;;;;9.75;8.85;;;7.00;99.90;;;;;;4924070;29;20997;-58
2022/06/14 03:44:42;;;;;;;8.65;7.75;;;7.00;99.90;;;;;;4926056;29;20391;-58
2022/06/14 03:47:33;;;;;;;7.45;6.75;;;7.00;99.90;;;;;;4926842;29;20051;-58
2022/06/14 03:50:08;;;;;;;8.15;7.55;;;7.00;99.90;;;;;;4926435;29;20047;-58
2022/06/14 03:52:52;;;;;;;7.90;6.68;;;6.90;99.90;;;;;;4929580;29;20499;-59
2022/06/14 03:55:48;;;;;;;8.65;7.80;;;6.90;99.90;;;;;;4928484;29;20175;-58
2022/06/14 03:58:20;;;;;;;9.05;6.97;;;6.90;99.90;;;;;;4925512;29;20036;-58
2022/06/14 04:00:46;;;;;;;7.55;6.85;;;6.90;99.90;;;;;;4923272;29;20023;-59
2022/06/14 04:03:12;;;;;;;7.93;7.13;;;7.00;99.90;;;;;;4928552;29;20067;-58
2022/06/14 04:06:09;;;;;;;8.05;7.30;;;7.00;99.90;;;;;;4925367;29;20051;-59
2022/06/14 04:09:14;;;;;;;8.55;7.20;;;7.00;99.90;;;;;;4918486;29;20032;-59
2022/06/14 04:12:06;;;;;;;8.60;7.75;;;7.10;99.90;;;;;;4927198;29;20040;-58
2022/06/14 04:15:00;;;;;;;10.32;7.80;;;7.20;99.90;;;;;;4923497;29;20653;-59
2022/06/14 04:17:40;;;;;;;9.07;8.30;;;7.30;99.90;;;;;;4924489;29;20126;-58
2022/06/14 04:20:09;;;;;;;9.65;8.82;;;7.30;99.90;;;;;;4922366;29;20039;-58
2022/06/14 04:22:52;;;;;;;8.70;7.80;;;7.40;99.90;;;;;;4927356;29;20032;-58
2022/06/14 04:25:30;;;;;;;8.77;8.00;;;7.50;99.90;;;;;;4923791;29;20242;-59
2022/06/14 04:28:02;;;;;;;9.52;8.55;;;7.60;99.90;;;;;;4916650;29;20472;-62
2022/06/14 04:30:46;;;;;;;9.32;8.52;;;7.70;99.90;;;;;;4922309;29;20016;-60
2022/06/14 04:33:12;;;;;;;9.05;8.25;;;7.80;99.90;;;;;;4924573;29;20028;-60
2022/06/14 04:35:56;;;;;;;8.95;8.00;;;7.90;99.90;;;;;;4916768;29;20083;-60
2022/06/14 04:38:31;;;;;;;9.57;7.28;;;8.00;99.90;;;;;;4924344;29;20449;-59
2022/06/14 04:41:00;;;;;;;10.43;8.10;;;8.10;99.90;;;;;;4923653;29;20058;-59
2022/06/14 04:43:38;;;;;;;7.75;7.05;;;8.10;99.90;;;;;;4925833;29;20036;-59
2022/06/14 04:46:22;;;;;;;9.98;7.97;;;8.20;99.90;;;;;;4922726;29;20365;-59
2022/06/14 04:49:11;;;;;;;8.50;7.40;;;8.30;99.90;;;;;;4925218;29;20032;-58
2022/06/14 04:51:51;;;;;;;8.90;7.68;;;8.50;99.90;;;;;;4918814;29;20044;-59
2022/06/14 04:54:23;;;;;;;10.02;8.27;;;8.60;99.90;;;;;;4920414;29;20542;-59
2022/06/14 04:56:59;;;;;;;7.90;7.10;;;8.70;99.90;;;;;;4925178;29;20040;-59
2022/06/14 04:59:48;;;;;;;8.18;7.07;;;8.90;99.90;;;;;;4921408;29;20024;-58
2022/06/14 05:02:36;;;;;;;7.63;6.70;;;9.00;99.90;;;;;;4921150;29;20040;-58
2022/06/14 05:05:11;;;;;;;8.85;7.47;;;9.10;99.90;;;;;;4926575;29;20035;-59
2022/06/14 05:07:46;;;;;;;7.97;7.28;;;9.30;99.90;;;;;;4919748;29;20041;-60
2022/06/14 05:10:33;;;;;;;8.55;7.00;;;9.40;99.90;;;;;;4924759;29;20040;-59
2022/06/14 05:13:08;;;;;;;6.57;5.97;;;9.80;99.90;;;;;;4921410;29;20032;-59
2022/06/14 05:15:49;;;;;;;7.88;5.70;;;11.00;99.90;;;;;;4920280;29;20444;-59
2022/06/14 05:18:24;;;;;;;6.05;4.50;;;12.70;99.90;;;;;;4922432;29;20504;-59
2022/06/14 05:21:01;;;;;;;5.45;4.05;;;14.60;99.90;;;;;;4922240;29;20036;-60
2022/06/14 05:23:43;;;;;;;5.03;3.65;;;16.40;99.90;;;;;;4925736;29;20046;-60
2022/06/14 05:26:22;;;;;;;3.20;2.90;;;18.10;99.90;;;;;;4920496;29;20048;-60
2022/06/14 05:29:09;;;;;;;3.80;3.40;;;19.50;95.80;;;;;;4923985;29;20122;-60
2022/06/14 05:31:56;;;;;;;4.70;3.08;;;20.80;80.90;;;;;;4921965;29;20489;-60
2022/06/14 05:34:40;;;;;;;3.00;2.63;;;22.00;68.90;;;;;;4918961;29;20067;-60
2022/06/14 05:37:24;;;;;;;5.90;3.03;;;22.60;66.20;;;;;;4923328;29;20058;-60
2022/06/14 05:39:54;;;;;;;3.25;2.70;;;23.30;59.50;;;;;;4912796;29;20032;-60
2022/06/14 05:42:22;;;;;;;5.53;2.53;;;23.90;59.30;;;;;;4920949;29;20043;-60
2022/06/14 05:44:53;;;;;;;3.25;2.08;;;24.10;57.70;;;;;;4921824;29;20082;-60
2022/06/14 05:47:44;;;;;;;3.30;2.75;;;24.50;55.20;;;;;;4920533;29;20031;-60
2022/06/14 05:50:16;;;;;;;3.05;2.35;;;24.80;54.10;;;;;;4920778;28;20040;-60
2022/06/14 05:53:07;;;;;;;3.90;2.33;;;25.20;52.90;;;;;;4906932;29;20500;-60
2022/06/14 05:55:40;;;;;;;3.05;2.30;;;25.50;52.90;;;;;;4912070;29;20638;-61
2022/06/14 05:58:17;;;;;;;3.25;2.28;;;25.40;52.40;;;;;;4924104;29;20016;-61
2022/06/14 06:00:49;;;;;;;5.75;2.30;;;26.00;52.50;;;;;;4924077;29;20555;-60
2022/06/14 06:03:38;;;;;;;3.70;2.20;;;25.80;50.70;;;;;;4924704;29;20040;-61
2022/06/14 06:06:11;;;;;;;2.92;2.10;;;26.80;50.00;;;;;;4920047;29;20530;-61
2022/06/14 06:08:55;;;;;;;6.15;2.10;;;27.50;50.00;;;;;;4920130;29;20068;-61
2022/06/14 06:11:46;;;;;;;2.55;1.75;;;27.80;47.50;;;;;;4923638;29;20042;-61
2022/06/14 06:14:19;;;;;;;11.35;2.33;;;27.80;47.00;;;;;;4919697;29;20040;-61
2022/06/14 06:19:32;;;;;;;3.75;1.95;;;27.20;46.80;;;;;;4920997;29;20032;-61
2022/06/14 06:22:01;;;;;;;2.63;1.70;;;27.90;47.10;;;;;;4923917;29;20075;-61
2022/06/14 06:24:40;;;;;;;2.95;1.90;;;28.30;45.20;;;;;;4919635;29;20041;-61
2022/06/14 06:27:11;;;;;;;2.83;1.70;;;28.40;45.80;;;;;;4921803;29;20047;-61
2022/06/14 06:29:59;;;;;;;3.88;1.90;;;28.90;45.50;;;;;;4920071;29;20032;-61
2022/06/14 06:32:26;;;;;;;3.17;2.03;;;29.60;43.80;;;;;;4905064;29;20051;-62
2022/06/14 06:34:52;;;;;;;4.00;1.30;;;29.40;42.20;;;;;;4920405;29;20043;-61
2022/06/14 06:37:21;;;;;;;3.17;1.70;;;29.00;43.70;;;;;;4906012;29;20424;-61
2022/06/14 06:39:52;;;;;;;5.05;1.60;;;29.10;43.70;;;;;;4921143;29;20591;-62
2022/06/14 06:42:27;;;;;;;2.65;1.58;;;29.80;42.40;;;;;;4919787;29;20041;-61
2022/06/14 06:45:05;;;;;;;2.35;1.60;;;29.90;41.00;;;;;;4918470;29;20028;-61
2022/06/14 06:47:39;;;;;;;2.28;1.50;;;30.30;40.50;;;;;;4917473;29;20473;-61
2022/06/14 06:50:15;;;;;;;2.08;1.50;;;30.30;41.90;;;;;;4919192;29;20028;-62
2022/06/14 06:52:50;;;;;;;1.83;1.25;;;30.80;41.40;;;;;;4919721;29;20040;-62
2022/06/14 06:55:22;;;;;;;4.28;1.90;;;31.00;41.50;;;;;;4920708;29;20148;-62
2022/06/14 06:57:50;;;;;;;5.57;1.73;;;31.40;41.10;;;;;;4922963;29;20031;-62
2022/06/14 07:00:19;;;;;;;2.70;1.50;;;31.60;40.00;;;;;;4922845;29;20031;-62
2022/06/14 07:02:53;;;;;;;2.53;1.40;;;32.10;38.90;;;;;;4917286;29;20067;-62
2022/06/14 07:05:19;;;;;;;2.20;1.30;;;32.60;39.00;;;;;;4921425;29;20115;-62
2022/06/14 07:07:49;;;;;;;1.50;1.10;;;31.80;38.40;;;;;;4920866;29;20040;-62
2022/06/14 07:10:21;;;;;;;2.17;1.25;;;31.50;39.60;;;;;;4921156;29;20044;-62
2022/06/14 07:12:56;;;;;;;2.72;1.40;;;31.70;40.40;;;;;;4918500;29;20083;-62
2022/06/14 07:15:33;;;;;;;1.88;1.17;;;31.80;40.70;;;;;;4918603;29;20400;-62
2022/06/14 07:18:11;;;;;;;3.08;1.15;;;32.30;39.20;;;;;;4921226;29;20492;-62
2022/06/14 07:20:44;;;;;;;1.33;1.08;;;32.70;38.10;;;;;;4920515;29;20040;-62
2022/06/14 07:23:18;;;;;;;4.50;1.30;;;32.10;36.90;;;;;;4919339;29;20027;-62
2022/06/14 07:26:06;;;;;;;2.35;1.10;;;32.40;38.30;;;;;;4919647;29;20048;-63
2022/06/14 07:28:43;;;;;;;2.95;1.17;;;31.70;37.90;;;;;;4918436;29;20043;-62
2022/06/14 07:31:20;;;;;;;4.55;1.13;;;32.30;38.70;;;;;;4921897;29;20392;-63
2022/06/14 07:33:45;;;;;;;2.60;1.13;;;32.20;38.10;;;;;;4919485;29;20086;-62
2022/06/14 07:36:26;;;;;;;4.18;1.23;;;32.30;38.30;;;;;;4923689;28;20039;-62
2022/06/14 07:39:02;;;;;;;2.97;1.15;;;32.00;37.50;;;;;;4915136;29;20122;-62
2022/06/14 07:41:38;;;;;;;2.13;1.10;;;31.80;39.40;;;;;;4916871;29;20119;-62
2022/06/14 07:44:46;;;;;;;2.58;1.40;;;32.10;39.80;;;;;;4919680;29;20114;-62
2022/06/14 07:47:56;;;;;;;1.73;0.98;;;31.60;40.10;;;;;;4884172;29;20028;-62
2022/06/14 07:50:51;;;;;;;4.05;1.25;;;32.20;38.70;;;;;;4895992;29;20052;-62
2022/06/14 07:53:25;;;;;;;2.83;1.10;;;32.20;36.90;;;;;;4916359;29;20087;-62
2022/06/14 07:56:04;;;;;;;1.98;1.05;;;32.10;36.70;;;;;;4922083;28;20403;-62
2022/06/14 07:58:47;;;;;;;3.83;1.00;;;32.00;38.30;;;;;;4919639;29;20037;-62
2022/06/14 08:01:37;;;;;;;2.65;1.08;;;32.10;37.40;;;;;;4918941;29;20140;-62
2022/06/14 08:04:30;;;;;;;3.35;1.20;;;32.60;37.00;;;;;;4919898;29;20039;-63
2022/06/14 08:07:05;;;;;;;0.82;0.50;;;32.90;36.10;;;;;;4907840;29;20032;-63
2022/06/14 08:09:39;;;;;;;1.70;0.60;;;32.90;35.30;;;;;;4919342;29;20024;-62
2022/06/14 08:12:16;;;;;;;2.25;0.50;;;32.70;34.50;;;;;;4917386;29;20036;-62
2022/06/14 08:14:49;;;;;;;1.70;0.90;;;32.50;33.00;;;;;;4921991;29;20020;-62
2022/06/14 08:17:23;;;;;;;1.45;0.60;;;32.50;34.70;;;;;;4906962;28;20407;-62
2022/06/14 08:20:08;;;;;;;1.73;0.80;;;32.90;34.20;;;;;;4919829;29;20028;-62
2022/06/14 08:22:42;;;;;;;3.03;0.80;;;33.00;34.70;;;;;;4904103;29;20032;-62
2022/06/14 08:25:12;;;;;;;1.58;0.70;;;32.70;35.20;;;;;;4913974;29;20020;-62
2022/06/14 08:27:47;;;;;;;4.80;0.80;;;32.30;35.80;;;;;;4924655;29;20079;-61
2022/06/14 08:30:18;;;;;;;1.75;0.80;;;32.00;37.00;;;;;;4926353;29;20090;-61
2022/06/14 08:33:00;;;;;;;4.05;0.82;;;30.80;38.20;;;;;;4924220;29;20071;-61
2022/06/14 08:35:45;;;;;;;3.10;0.85;;;29.80;38.90;;;;;;4923754;29;20025;-61
2022/06/14 08:38:17;;;;;;;2.20;0.77;;;29.70;41.00;;;;;;4920162;29;20042;-61
2022/06/14 08:40:51;;;;;;;1.45;0.70;;;29.80;41.20;;;;;;4920706;29;20040;-61
2022/06/14 08:43:26;;;;;;;3.83;1.35;;;30.00;39.90;;;;;;4924350;29;20115;-61
2022/06/14 08:46:06;;;;;;;3.58;1.17;;;29.70;39.00;;;;;;4921956;29;20035;-62
2022/06/14 08:48:59;;;;;;;3.30;0.80;;;30.10;40.50;;;;;;4923470;29;20055;-62
2022/06/14 08:51:46;;;;;;;1.65;0.80;;;31.00;37.60;;;;;;4921482;29;20044;-62
2022/06/14 08:54:30;;;;;;;1.55;0.68;;;31.30;34.40;;;;;;4926441;29;20051;-62
2022/06/14 08:57:41;;;;;;;3.78;0.98;;;32.10;36.50;;;;;;4922108;29;20474;-62
2022/06/14 09:00:17;;;;;;;2.13;0.75;;;32.00;36.90;;;;;;4892660;29;20115;-62
2022/06/14 09:03:04;;;;;;;13.23;1.52;;;32.60;37.60;;;;;;4924111;29;20387;-61
2022/06/14 09:05:51;;;;;;;2.10;0.85;;;32.70;36.10;;;;;;4917669;29;20039;-62
2022/06/14 09:08:54;;;;;;;3.30;0.88;;;32.60;33.00;;;;;;4920261;29;20032;-62
2022/06/14 09:11:39;;;;;;;1.20;0.70;;;33.20;33.80;;;;;;4920118;29;20119;-61
2022/06/14 09:14:21;;;;;;;2.58;0.80;;;33.60;34.50;;;;;;4922805;29;20060;-61
2022/06/14 09:16:57;;;;;;;2.22;0.95;;;33.70;33.80;;;;;;4922352;29;20570;-61
2022/06/14 09:20:02;;;;;;;1.80;0.57;;;34.00;34.00;;;;;;4924168;29;20114;-61
2022/06/14 09:22:37;;;;;;;3.10;0.90;;;33.70;34.90;;;;;;4922787;29;20031;-61
2022/06/14 09:25:35;;;;;;;3.00;0.80;;;33.60;33.90;;;;;;4922753;29;20020;-62
2022/06/14 09:28:11;;;;;;;4.18;0.70;;;33.40;33.90;;;;;;4894253;29;20407;-63
2022/06/14 09:30:55;;;;;;;1.52;0.57;;;33.40;31.70;;;;;;4920266;29;20028;-62
2022/06/14 09:33:37;;;;;;;2.03;0.65;;;33.50;33.80;;;;;;4920186;29;20373;-61
2022/06/14 09:36:35;;;;;;;1.80;0.70;;;33.40;34.20;;;;;;4924174;29;20677;-61
2022/06/14 09:39:38;;;;;;;2.65;0.80;;;33.60;34.00;;;;;;4869890;29;20028;-62
2022/06/14 09:42:28;;;;;;;1.70;0.75;;;33.40;34.80;;;;;;4922143;29;20027;-62
2022/06/14 09:44:59;;;;;;;0.60;0.60;;;33.60;35.20;;;;;;4921538;29;20134;-61
2022/06/14 09:47:47;;;;;;;2.08;0.82;;;34.40;33.20;;;;;;4924917;29;20039;-61
2022/06/14 09:50:53;;;;;;;5.40;0.70;;;35.20;32.60;;;;;;4922316;29;20440;-61
2022/06/14 09:53:40;;;;;;;1.50;0.70;;;35.80;31.40;;;;;;4917156;29;20373;-62
2022/06/14 09:56:41;;;;;;;2.38;0.93;;;35.60;29.80;;;;;;4921642;29;20048;-62
2022/06/14 09:59:15;;;;;;;3.20;0.77;;;35.60;31.10;;;;;;4882396;29;20035;-61
2022/06/14 10:02:21;;;;;;;2.13;0.60;;;36.00;31.00;;;;;;4916827;29;20052;-61
2022/06/14 10:05:36;;;;;;;1.70;0.73;;;36.80;29.90;;;;;;4918726;29;20499;-62
2022/06/14 10:08:28;;;;;;;3.22;0.80;;;36.20;30.10;;;;;;4893291;29;20079;-61
2022/06/14 10:11:24;;;;;;;3.33;0.90;;;35.90;31.30;;;;;;4922057;29;20040;-61
2022/06/14 10:14:08;;;;;;;2.05;0.70;;;35.20;30.40;;;;;;4919741;29;20508;-61
2022/06/14 10:17:04;;;;;;;1.30;0.70;;;34.20;31.40;;;;;;4926076;28;20044;-61
2022/06/14 10:20:02;;;;;;;1.80;0.90;;;34.50;32.00;;;;;;4921435;29;20032;-62
2022/06/14 10:22:35;;;;;;;2.35;1.00;;;34.30;30.70;;;;;;4914574;29;20044;-61
2022/06/14 10:25:13;;;;;;;1.52;0.60;;;34.80;32.80;;;;;;4920832;29;20048;-62
2022/06/14 10:31:19;;;;;;;1.63;0.65;;;35.10;32.50;;;;;;4920767;29;20046;-62
2022/06/14 10:34:01;;;;;;;1.85;0.80;;;35.00;32.80;;;;;;4829419;29;20643;-62
2022/06/14 10:36:32;;;;;;;2.63;0.80;;;34.70;32.20;;;;;;4894817;29;20043;-61
2022/06/14 10:39:23;;;;;;;2.80;0.63;;;34.30;31.50;;;;;;4921126;29;20044;-61
2022/06/14 10:42:08;;;;;;;3.47;0.90;;;34.10;31.70;;;;;;4921096;29;20032;-61
2022/06/14 10:44:56;;;;;;;1.33;0.77;;;33.60;32.60;;;;;;4920799;29;20078;-62
2022/06/14 10:47:21;;;;;;;7.47;0.80;;;33.60;32.00;;;;;;4917494;29;20599;-61
2022/06/14 10:50:02;;;;;;;1.95;0.80;;;33.10;33.40;;;;;;4915622;29;20045;-61
2022/06/14 10:52:42;;;;;;;2.13;0.82;;;32.70;34.10;;;;;;4919455;29;20050;-61
2022/06/14 10:55:33;;;;;;;1.42;0.75;;;32.40;34.50;;;;;;4920232;29;20063;-61
2022/06/14 10:58:26;;;;;;;1.60;0.63;;;32.50;34.10;;;;;;4922118;29;20050;-61
2022/06/14 11:01:16;;;;;;;2.33;0.73;;;32.30;33.70;;;;;;4922314;29;20036;-60
2022/06/14 11:04:08;;;;;;;4.93;0.80;;;31.80;34.20;;;;;;4920288;29;20193;-60
2022/06/14 11:06:58;;;;;;;2.42;1.00;;;31.30;34.80;;;;;;4923979;29;20060;-61
2022/06/14 11:09:26;;;;;;;1.67;0.70;;;31.10;34.10;;;;;;4919887;29;20047;-61
2022/06/14 11:11:58;;;;;;;4.25;0.82;;;30.90;34.70;;;;;;4919967;29;20559;-60
2022/06/14 11:14:39;;;;;;;3.47;0.73;;;30.40;34.60;;;;;;4921726;29;20499;-60
2022/06/14 11:17:45;;;;;;;1.20;0.43;;;29.70;36.70;;;;;;4918789;29;20036;-60
2022/06/14 11:20:48;;;;;;;1.80;0.60;;;29.80;36.80;;;;;;4867494;29;20032;-60
2022/06/14 11:23:19;;;;;;;1.88;0.70;;;29.40;37.90;;;;;;4921891;29;20416;-60
2022/06/14 11:25:50;;;;;;;2.65;0.80;;;29.50;37.40;;;;;;4917750;29;20136;-61
2022/06/14 11:28:51;;;;;;;1.48;0.70;;;29.30;37.50;;;;;;4911495;29;20131;-60
2022/06/14 11:31:32;;;;;;;3.67;0.90;;;29.40;37.30;;;;;;4882935;29;20211;-61
2022/06/14 11:34:09;;;;;;;2.67;0.60;;;29.60;37.60;;;;;;4921486;29;20066;-60
2022/06/14 11:37:02;;;;;;;0.93;0.57;;;29.50;35.30;;;;;;4916368;29;20267;-61
2022/06/14 11:39:42;;;;;;;1.48;0.70;;;29.60;38.50;;;;;;4919365;29;20495;-60
2022/06/14 11:42:31;;;;;;;1.02;0.60;;;29.60;36.90;;;;;;4921420;29;20042;-60
2022/06/14 11:45:15;;;;;;;1.60;0.65;;;29.50;36.90;;;;;;4903958;29;20032;-60
2022/06/14 11:48:09;;;;;;;1.88;0.82;;;29.40;38.00;;;;;;4906514;29;20032;-60
2022/06/14 11:50:41;;;;;;;1.98;0.70;;;29.60;36.60;;;;;;4923868;29;20051;-60
2022/06/14 11:53:34;;;;;;;3.50;0.95;;;29.50;38.00;;;;;;4923295;29;20031;-60
2022/06/14 11:56:18;;;;;;;1.77;0.80;;;29.30;37.40;;;;;;4923937;29;20028;-60
2022/06/14 11:59:06;;;;;;;2.17;0.60;;;29.10;38.90;;;;;;4916137;29;20040;-62
2022/06/14 12:01:49;;;;;;;6.15;0.77;;;29.20;37.90;;;;;;4923517;29;20479;-61
2022/06/14 12:05:01;;;;;;;1.48;0.63;;;29.10;37.00;;;;;;4927513;29;20140;-61
2022/06/14 12:07:40;;;;;;;2.35;0.70;;;29.00;37.20;;;;;;4922862;29;20502;-60
2022/06/14 12:10:36;;;;;;;2.80;0.82;;;29.10;36.80;;;;;;4923249;29;20020;-60
2022/06/14 12:13:14;;;;;;;1.85;0.43;;;29.40;36.10;;;;;;4921179;29;20044;-60
2022/06/14 12:15:45;;;;;;;0.85;0.47;;;29.70;34.80;;;;;;4926261;29;20051;-60
2022/06/14 12:18:15;;;;;;;1.77;0.70;;;29.90;35.10;;;;;;4925230;29;20040;-60
2022/06/14 12:21:05;;;;;;;1.83;0.70;;;30.20;33.40;;;;;;4920416;29;20044;-60
2022/06/14 12:23:37;;;;;;;1.00;0.47;;;30.20;32.30;;;;;;4921552;29;20039;-60
2022/06/14 12:26:34;;;;;;;0.80;0.70;;;30.00;35.00;;;;;;4921089;29;20058;-60
2022/06/14 12:29:12;;;;;;;2.30;0.60;;;30.20;33.90;;;;;;4893508;29;20028;-60
2022/06/14 12:31:52;;;;;;;0.77;0.70;;;30.10;33.80;;;;;;4925511;29;20108;-60
2022/06/14 12:34:27;;;;;;;1.10;0.60;;;30.20;33.40;;;;;;4921515;29;20054;-60
2022/06/14 12:37:07;;;;;;;1.63;0.73;;;30.30;35.00;;;;;;4928820;29;20076;-60
2022/06/14 12:40:04;;;;;;;1.92;0.65;;;30.20;33.80;;;;;;4892213;29;20048;-59
2022/06/14 12:42:41;;;;;;;1.23;0.60;;;30.30;33.40;;;;;;4915968;29;20090;-60
2022/06/14 12:45:17;;;;;;;3.25;0.90;;;30.50;33.00;;;;;;4898163;29;20036;-60
2022/06/14 12:48:09;;;;;;;1.77;0.60;;;30.50;34.80;;;;;;4917691;29;20059;-60
2022/06/14 12:51:04;;;;;;;3.30;0.60;;;30.10;34.50;;;;;;4890485;29;20437;-60
2022/06/14 12:53:30;;;;;;;2.42;0.73;;;29.60;35.60;;;;;;4917289;29;20027;-60
2022/06/14 12:56:06;;;;;;;2.47;0.68;;;29.30;35.50;;;;;;4920165;29;20039;-60
2022/06/14 12:58:45;;;;;;;1.98;1.00;;;29.20;34.30;;;;;;4884954;28;20067;-60
2022/06/14 13:01:22;;;;;;;1.05;0.63;;;28.90;37.20;;;;;;4923062;29;20058;-63
2022/06/14 13:03:58;;;;;;;3.45;0.80;;;29.00;36.70;;;;;;4922130;29;20043;-60
2022/06/14 13:09:30;;;;;;;1.05;0.50;;;29.30;33.70;;;;;;5895258;23;21087;-90
2022/06/14 13:12:08;;;;;;;1.05;0.63;;;29.40;34.30;;;;;;4927282;29;20051;-92
2022/06/14 13:15:29;;;;;;;2.55;0.70;;;29.50;34.20;;;;;;4925918;29;20127;-93
2022/06/14 13:17:58;;;;;;;;;;;29.90;33.80;;;;;;4921421;29;20439;-92
2022/06/14 13:20:28;;;;;;;1.17;0.65;;;30.20;34.30;;;;;;4925363;29;19935;-92
2022/06/14 13:23:06;;;;;;;0.90;0.52;;;30.20;32.90;;;;;;4902325;29;20084;-91
2022/06/14 13:25:59;;;;;;;2.15;0.70;;;29.90;34.80;;;;;;4902528;29;20028;-91
2022/06/14 13:28:30;;;;;;;1.35;0.60;;;29.50;32.70;;;;;;4920734;29;20034;-93
2022/06/14 13:31:33;;;;;;;1.20;0.50;;;29.20;33.40;;;;;;4922057;29;20028;-89
2022/06/14 13:34:19;;;;;;;1.25;0.50;;;29.00;33.70;;;;;;4920399;29;20030;-92
2022/06/14 13:37:10;;;;;;;0.68;0.57;;;28.80;33.80;;;;;;4916461;29;20028;-93
2022/06/14 13:39:42;;;;;;;3.20;0.50;;;28.80;34.30;;;;;;4913530;29;20480;-92
2022/06/14 13:42:22;;;;;;;0.70;0.60;;;28.70;33.60;;;;;;4899358;29;20060;-92
2022/06/14 13:44:56;;;;;;;2.13;0.57;;;28.80;34.60;;;;;;4895783;29;20032;-93
2022/06/14 13:47:33;;;;;;;2.17;0.60;;;29.10;32.50;;;;;;4900094;29;20592;-93
2022/06/14 13:50:17;;;;;;;1.05;0.60;;;28.90;30.90;;;;;;4895977;29;20032;-92
2022/06/14 13:52:52;;;;;;;1.63;0.70;;;28.60;33.30;;;;;;4923141;29;20134;-92
2022/06/14 13:56:06;;;;;;;1.50;0.60;;;28.30;33.10;;;;;;4911818;29;20036;-93
2022/06/14 13:58:41;;;;;;;1.48;0.75;;;28.00;33.50;;;;;;4867499;29;20032;-92
2022/06/14 14:01:30;;;;;;;1.20;0.70;;;27.80;34.30;;;;;;4912648;29;20040;-91
2022/06/14 14:04:15;;;;;;;0.63;0.60;;;27.60;34.60;;;;;;4912313;29;20039;-93
2022/06/14 14:06:59;;;;;;;2.00;0.70;;;27.30;35.10;;;;;;4923358;29;20260;-93
2022/06/14 14:09:42;;;;;;;2.42;0.82;;;27.00;34.50;;;;;;4914854;29;20068;-94
2022/06/14 14:12:24;;;;;;;6.07;0.80;;;26.70;36.10;;;;;;4919647;29;20043;-94